Time;durP1;ratioP1;P1;durP2;ratioP2;P2;SDS_P1;SDS_P2;PMS_P1;PMS_P2;Temp;Humidity;BMP_temperature;BMP_pressure;BME280_temperature;BME280_humidity;BME280_pressure;Samples;Min_cycle;Max_cycle;Signal;HPM_P1;HPM_P2
2022/06/09 00:00:10;;;;;;;11.00;5.25;;;17.00;82.80;;;;;;5049993;28;20030;-62
2022/06/09 00:02:37;;;;;;;12.48;6.15;;;17.00;82.90;;;;;;5052233;28;20481;-63
2022/06/09 00:05:05;;;;;;;13.15;5.78;;;16.90;82.80;;;;;;5054856;28;20025;-63
2022/06/09 00:07:31;;;;;;;12.48;5.35;;;16.90;82.90;;;;;;5033800;28;20082;-63
2022/06/09 00:10:07;;;;;;;12.85;5.88;;;16.90;82.90;;;;;;5041998;28;20032;-63
2022/06/09 00:12:33;;;;;;;12.73;5.95;;;16.90;82.90;;;;;;5031399;28;20024;-63
2022/06/09 00:14:59;;;;;;;11.60;5.65;;;16.80;82.80;;;;;;5054696;28;20033;-63
2022/06/09 00:17:26;;;;;;;10.80;6.00;;;16.80;82.80;;;;;;5051241;28;20041;-63
2022/06/09 00:19:51;;;;;;;12.73;5.20;;;16.80;82.80;;;;;;5039436;28;20029;-63
2022/06/09 00:22:17;;;;;;;12.82;5.65;;;16.80;82.80;;;;;;5045632;28;20366;-62
2022/06/09 00:24:43;;;;;;;11.98;5.43;;;16.80;82.80;;;;;;5048235;28;20025;-62
2022/06/09 00:27:09;;;;;;;10.35;4.70;;;16.80;82.70;;;;;;5054851;28;20033;-63
2022/06/09 00:29:34;;;;;;;11.48;5.43;;;16.80;82.70;;;;;;5034240;28;20084;-63
2022/06/09 00:32:00;;;;;;;8.68;4.43;;;16.80;82.70;;;;;;5045557;28;20040;-63
2022/06/09 00:34:26;;;;;;;14.15;5.03;;;16.80;82.60;;;;;;5044969;28;20037;-62
2022/06/09 00:36:51;;;;;;;10.90;4.78;;;16.80;82.60;;;;;;5054658;28;20090;-63
2022/06/09 00:39:17;;;;;;;11.60;4.72;;;16.70;82.60;;;;;;5050795;28;20116;-63
2022/06/09 00:41:44;;;;;;;11.88;5.13;;;16.70;82.60;;;;;;5043601;28;20472;-62
2022/06/09 00:44:23;;;;;;;10.43;4.43;;;16.70;82.60;;;;;;5042577;28;20063;-62
2022/06/09 00:46:58;;;;;;;10.60;4.45;;;16.70;82.60;;;;;;5034657;28;20120;-63
2022/06/09 00:49:38;;;;;;;10.52;4.30;;;16.70;82.60;;;;;;5039289;28;20367;-63
2022/06/09 00:52:06;;;;;;;10.40;3.78;;;16.70;82.60;;;;;;5036255;28;20026;-63
2022/06/09 00:54:37;;;;;;;10.48;4.47;;;16.70;82.60;;;;;;5050227;28;20366;-63
2022/06/09 00:57:14;;;;;;;;;;;16.70;82.70;;;;;;5053949;28;20032;-62
2022/06/09 00:59:44;;;;;;;9.48;3.75;;;16.70;82.60;;;;;;5031316;28;19916;-62
2022/06/09 01:02:12;;;;;;;8.88;3.83;;;16.70;82.70;;;;;;5050545;28;20130;-63
2022/06/09 01:04:39;;;;;;;9.13;3.90;;;16.60;82.60;;;;;;5027855;28;20437;-62
2022/06/09 01:07:19;;;;;;;11.30;4.10;;;16.70;82.80;;;;;;5054235;28;20032;-63
2022/06/09 01:09:45;;;;;;;12.02;3.92;;;16.70;82.70;;;;;;5041260;28;20025;-62
2022/06/09 01:12:30;;;;;;;9.52;3.60;;;16.70;82.70;;;;;;5048051;28;20046;-62
2022/06/09 01:15:00;;;;;;;10.48;3.63;;;16.70;82.70;;;;;;5044118;28;20033;-62
2022/06/09 01:17:48;;;;;;;10.57;3.60;;;16.60;82.70;;;;;;5042191;28;20041;-63
2022/06/09 01:20:26;;;;;;;8.77;3.30;;;16.60;82.70;;;;;;5053155;28;20366;-63
2022/06/09 01:22:52;;;;;;;8.65;3.58;;;16.60;82.70;;;;;;5042969;28;20033;-62
2022/06/09 01:25:42;;;;;;;10.73;3.90;;;16.60;82.70;;;;;;5041789;28;20089;-63
2022/06/09 01:28:25;;;;;;;10.68;3.30;;;16.60;82.60;;;;;;5048674;28;20021;-63
2022/06/09 01:31:25;;;;;;;10.50;3.42;;;16.60;83.30;;;;;;5047040;28;20036;-63
2022/06/09 01:34:29;;;;;;;11.70;4.15;;;16.60;82.70;;;;;;5040958;28;20024;-62
2022/06/09 01:37:03;;;;;;;9.85;3.40;;;16.50;82.60;;;;;;5008084;28;20041;-62
2022/06/09 01:39:42;;;;;;;9.68;3.25;;;16.50;82.70;;;;;;5032794;28;20025;-63
2022/06/09 01:42:23;;;;;;;8.63;3.60;;;16.60;82.80;;;;;;5001490;28;20053;-62
2022/06/09 01:44:50;;;;;;;8.38;3.20;;;16.50;82.70;;;;;;5022758;28;20030;-62
2022/06/09 01:47:20;;;;;;;9.45;3.70;;;16.50;82.70;;;;;;5034843;28;20050;-62
2022/06/09 01:49:51;;;;;;;10.10;3.38;;;16.50;82.70;;;;;;5001402;28;20060;-63
2022/06/09 01:52:18;;;;;;;8.18;3.83;;;16.50;82.70;;;;;;5034282;28;20112;-63
2022/06/09 01:54:45;;;;;;;11.25;3.72;;;16.50;82.80;;;;;;5034396;28;20046;-62
2022/06/09 01:57:18;;;;;;;10.05;3.65;;;16.50;82.80;;;;;;5016883;28;20107;-62
2022/06/09 02:00:07;;;;;;;8.05;3.60;;;16.50;82.80;;;;;;4991639;28;20091;-62
2022/06/09 02:03:01;;;;;;;9.85;3.58;;;16.40;82.70;;;;;;5032152;28;20501;-62
2022/06/09 02:05:32;;;;;;;11.35;3.97;;;16.40;82.70;;;;;;5020100;28;20045;-63
2022/06/09 02:08:02;;;;;;;10.63;3.75;;;16.40;82.60;;;;;;5033130;28;20382;-62
2022/06/09 02:10:30;;;;;;;9.88;3.53;;;16.40;82.80;;;;;;5019643;28;20366;-63
2022/06/09 02:13:00;;;;;;;10.38;3.63;;;16.40;82.80;;;;;;5030634;28;20458;-63
2022/06/09 02:15:40;;;;;;;9.93;3.83;;;16.40;82.80;;;;;;5054856;28;20033;-63
2022/06/09 02:18:09;;;;;;;11.13;3.83;;;16.40;82.80;;;;;;5052777;28;20034;-62
2022/06/09 02:20:41;;;;;;;9.27;3.60;;;16.40;82.80;;;;;;5032379;28;20040;-63
2022/06/09 02:23:11;;;;;;;10.50;3.95;;;16.40;82.70;;;;;;5054625;28;20036;-63
2022/06/09 02:25:38;;;;;;;11.40;3.50;;;16.40;82.80;;;;;;5036976;28;20095;-63
2022/06/09 02:28:05;;;;;;;8.00;3.40;;;16.30;82.70;;;;;;5039640;28;20036;-62
2022/06/09 02:30:31;;;;;;;10.60;4.05;;;16.30;82.70;;;;;;5049713;28;20109;-63
2022/06/09 02:32:57;;;;;;;11.45;4.00;;;16.30;83.00;;;;;;5055713;28;20053;-63
2022/06/09 02:35:22;;;;;;;9.23;3.47;;;16.30;82.70;;;;;;5049142;28;20095;-63
2022/06/09 02:37:48;;;;;;;11.23;3.78;;;16.30;82.70;;;;;;5050828;28;20025;-63
2022/06/09 02:40:14;;;;;;;12.23;4.25;;;16.30;82.60;;;;;;5047404;28;20067;-63
2022/06/09 02:42:39;;;;;;;9.15;3.47;;;16.30;82.60;;;;;;5056136;28;20056;-63
2022/06/09 02:45:06;;;;;;;11.98;3.88;;;16.20;82.50;;;;;;5040419;28;20052;-63
2022/06/09 02:47:32;;;;;;;10.32;3.83;;;16.20;82.60;;;;;;5050732;28;20029;-62
2022/06/09 02:49:58;;;;;;;9.15;3.92;;;16.20;82.50;;;;;;5036957;28;20034;-62
2022/06/09 02:52:24;;;;;;;10.98;3.92;;;16.20;82.60;;;;;;5049610;28;20116;-63
2022/06/09 02:54:49;;;;;;;11.25;4.15;;;16.20;82.60;;;;;;5049715;28;20045;-63
2022/06/09 02:57:15;;;;;;;14.00;4.25;;;16.20;82.60;;;;;;5045506;28;20039;-63
2022/06/09 02:59:41;;;;;;;10.77;3.97;;;16.20;82.50;;;;;;5038013;28;20339;-63
2022/06/09 03:02:06;;;;;;;9.40;3.42;;;16.20;82.50;;;;;;5052905;28;20450;-62
2022/06/09 03:04:32;;;;;;;13.00;3.83;;;16.20;82.60;;;;;;5053372;28;20036;-63
2022/06/09 03:06:58;;;;;;;10.70;3.78;;;16.10;82.50;;;;;;5045755;28;20040;-65
2022/06/09 03:09:23;;;;;;;12.77;4.18;;;16.10;82.50;;;;;;5038288;28;20446;-65
2022/06/09 03:11:49;;;;;;;11.68;4.05;;;16.10;82.60;;;;;;5042229;28;20072;-65
2022/06/09 03:14:15;;;;;;;11.02;3.53;;;16.10;82.50;;;;;;5053349;28;20029;-65
2022/06/09 03:16:40;;;;;;;13.50;3.90;;;16.10;82.50;;;;;;5037450;28;20018;-65
2022/06/09 03:19:06;;;;;;;11.52;4.07;;;16.00;82.50;;;;;;5042674;28;20033;-65
2022/06/09 03:21:32;;;;;;;10.95;4.28;;;16.10;82.60;;;;;;5045425;28;20043;-65
2022/06/09 03:23:58;;;;;;;13.32;4.72;;;16.10;82.60;;;;;;5055570;28;20021;-65
2022/06/09 03:26:24;;;;;;;10.18;4.22;;;16.00;82.50;;;;;;5040322;28;20033;-65
2022/06/09 03:28:53;;;;;;;11.30;3.95;;;16.00;82.40;;;;;;5047247;28;20095;-65
2022/06/09 03:31:19;;;;;;;11.02;3.78;;;16.00;82.40;;;;;;5042361;28;20020;-65
2022/06/09 03:33:44;;;;;;;10.25;4.20;;;16.10;82.50;;;;;;5043196;28;20033;-62
2022/06/09 03:36:10;;;;;;;12.63;4.32;;;16.00;82.50;;;;;;5038918;28;20033;-62
2022/06/09 03:38:38;;;;;;;12.40;4.05;;;16.10;82.50;;;;;;5034371;28;20028;-62
2022/06/09 03:41:04;;;;;;;8.10;3.90;;;16.00;82.50;;;;;;5035069;28;20017;-63
2022/06/09 03:43:29;;;;;;;12.93;4.85;;;16.10;82.50;;;;;;5033545;28;20025;-63
2022/06/09 03:45:56;;;;;;;10.40;3.63;;;16.10;82.50;;;;;;5034480;28;20044;-63
2022/06/09 03:48:21;;;;;;;8.27;3.63;;;16.10;82.50;;;;;;5034079;28;20029;-63
2022/06/09 03:50:47;;;;;;;10.02;4.00;;;16.10;82.40;;;;;;5034681;28;20473;-62
2022/06/09 03:53:12;;;;;;;10.95;4.30;;;16.10;82.40;;;;;;5022488;28;20048;-63
2022/06/09 03:55:38;;;;;;;9.13;4.05;;;16.10;82.40;;;;;;5034842;28;20033;-63
2022/06/09 03:58:04;;;;;;;11.07;4.03;;;16.10;82.50;;;;;;5044460;28;20028;-63
2022/06/09 04:00:32;;;;;;;11.75;3.80;;;16.10;82.50;;;;;;5044681;28;20362;-63
2022/06/09 04:02:57;;;;;;;9.43;3.90;;;16.10;82.50;;;;;;5038518;28;20513;-63
2022/06/09 04:05:24;;;;;;;8.82;3.78;;;16.20;82.50;;;;;;5053644;28;20033;-63
2022/06/09 04:07:50;;;;;;;11.25;4.50;;;16.20;82.50;;;;;;5045328;28;20029;-63
2022/06/09 04:10:18;;;;;;;11.88;4.15;;;16.20;82.50;;;;;;5040811;28;20115;-63
2022/06/09 04:12:44;;;;;;;8.45;3.65;;;16.30;82.50;;;;;;5037803;28;20025;-63
2022/06/09 04:15:10;;;;;;;11.75;3.75;;;16.30;82.50;;;;;;5053751;28;20108;-63
2022/06/09 04:17:36;;;;;;;13.23;4.13;;;16.30;82.40;;;;;;5043426;28;20147;-63
2022/06/09 04:20:03;;;;;;;10.00;3.53;;;16.40;82.40;;;;;;5052537;28;20442;-63
2022/06/09 04:22:29;;;;;;;10.60;4.20;;;16.40;82.30;;;;;;5051753;28;20029;-63
2022/06/09 04:24:55;;;;;;;9.65;3.63;;;16.40;82.30;;;;;;5053794;28;20021;-63
2022/06/09 04:27:21;;;;;;;11.65;3.95;;;16.50;82.40;;;;;;5036570;28;20029;-63
2022/06/09 04:29:46;;;;;;;11.95;3.75;;;16.50;82.30;;;;;;5050878;28;20090;-63
2022/06/09 04:32:12;;;;;;;9.05;3.50;;;16.50;82.30;;;;;;5054923;28;20037;-63
2022/06/09 04:34:38;;;;;;;11.48;3.97;;;16.50;82.30;;;;;;5054796;28;20052;-63
2022/06/09 04:37:03;;;;;;;10.25;4.00;;;16.60;82.30;;;;;;5054702;28;20044;-63
2022/06/09 04:39:29;;;;;;;8.50;3.63;;;16.50;82.20;;;;;;5025146;28;20030;-63
2022/06/09 04:41:55;;;;;;;10.43;3.13;;;16.60;82.30;;;;;;5042553;28;20079;-63
2022/06/09 04:44:20;;;;;;;8.50;3.40;;;16.60;82.30;;;;;;5054914;28;20028;-63
2022/06/09 04:46:46;;;;;;;12.10;4.03;;;16.60;82.20;;;;;;5024940;28;20033;-63
2022/06/09 04:49:12;;;;;;;8.70;3.60;;;16.70;82.40;;;;;;5047570;28;20385;-63
2022/06/09 04:51:37;;;;;;;10.60;3.85;;;16.70;82.20;;;;;;5034066;28;20366;-64
2022/06/09 04:54:03;;;;;;;9.70;3.63;;;16.70;82.10;;;;;;5046160;28;20029;-63
2022/06/09 04:56:28;;;;;;;12.88;4.13;;;16.80;82.10;;;;;;5038654;28;20041;-64
2022/06/09 04:58:54;;;;;;;11.43;4.43;;;16.80;82.00;;;;;;5038184;28;20028;-64
2022/06/09 05:01:23;;;;;;;10.68;3.83;;;16.70;82.10;;;;;;5037426;28;20021;-63
2022/06/09 05:03:49;;;;;;;9.98;3.70;;;16.70;82.10;;;;;;5034333;28;20099;-64
2022/06/09 05:06:20;;;;;;;13.13;4.18;;;16.70;82.20;;;;;;5033603;28;20118;-63
2022/06/09 05:08:50;;;;;;;9.30;3.67;;;16.80;82.30;;;;;;5038662;28;20451;-63
2022/06/09 05:11:17;;;;;;;14.25;3.75;;;16.70;82.20;;;;;;5050387;28;20300;-64
2022/06/09 05:13:43;;;;;;;9.88;3.35;;;16.80;82.20;;;;;;5053252;28;20045;-63
2022/06/09 05:16:09;;;;;;;9.30;3.78;;;16.80;82.20;;;;;;5052327;28;20033;-64
2022/06/09 05:18:37;;;;;;;12.02;3.70;;;17.10;82.20;;;;;;5037781;28;20029;-63
2022/06/09 05:21:03;;;;;;;10.18;3.83;;;17.30;81.60;;;;;;5042886;28;20068;-63
2022/06/09 05:23:30;;;;;;;11.35;4.80;;;17.50;81.20;;;;;;5047357;28;20025;-63
2022/06/09 05:25:58;;;;;;;10.90;4.20;;;17.60;81.00;;;;;;5040343;28;20446;-64
2022/06/09 05:28:26;;;;;;;11.48;3.92;;;17.60;80.70;;;;;;5043537;28;20035;-63
2022/06/09 05:30:51;;;;;;;12.65;4.22;;;17.70;80.70;;;;;;5049426;28;20481;-63
2022/06/09 05:33:18;;;;;;;9.15;4.10;;;17.70;80.50;;;;;;5038603;28;20065;-64
2022/06/09 05:35:43;;;;;;;9.98;3.78;;;17.70;80.50;;;;;;5037742;28;20413;-63
2022/06/09 05:46:27;;;;;;;8.80;3.03;;;17.60;81.40;;;;;;5049698;28;20038;-63
2022/06/09 05:48:53;;;;;;;8.10;3.30;;;17.60;80.70;;;;;;5056027;28;20111;-63
2022/06/09 05:51:19;;;;;;;9.10;2.92;;;17.60;80.50;;;;;;5049731;28;20171;-63
2022/06/09 05:53:45;;;;;;;10.15;2.92;;;17.60;80.50;;;;;;5054714;28;20021;-64
2022/06/09 05:56:11;;;;;;;6.47;2.92;;;17.50;80.40;;;;;;5032710;28;20030;-63
2022/06/09 05:58:37;;;;;;;7.53;2.42;;;17.60;80.50;;;;;;5051557;28;20098;-63
2022/06/09 06:01:06;;;;;;;8.77;3.08;;;17.60;80.40;;;;;;5054731;28;20497;-63
2022/06/09 06:03:33;;;;;;;8.40;2.63;;;17.60;80.40;;;;;;5050442;28;20380;-63
2022/06/09 06:08:43;;;;;;;7.65;3.00;;;17.70;80.10;;;;;;5046760;28;20427;-63
2022/06/09 06:11:08;;;;;;;8.18;2.83;;;17.90;79.60;;;;;;5049979;28;20055;-63
2022/06/09 06:13:34;;;;;;;9.10;2.33;;;18.00;79.40;;;;;;5040660;28;20037;-64
2022/06/09 06:16:00;;;;;;;8.90;2.78;;;18.10;79.20;;;;;;5037242;28;20037;-64
2022/06/09 06:18:27;;;;;;;5.85;2.28;;;18.00;79.10;;;;;;5041185;28;20072;-64
2022/06/09 06:20:55;;;;;;;6.32;2.10;;;18.10;79.10;;;;;;5023527;28;20040;-64
2022/06/09 06:23:22;;;;;;;7.38;2.13;;;18.30;78.70;;;;;;5041638;28;20117;-64
2022/06/09 06:25:48;;;;;;;5.13;2.00;;;18.50;78.30;;;;;;5052214;28;20446;-64
2022/06/09 06:28:13;;;;;;;6.70;2.30;;;18.80;77.80;;;;;;5055995;28;20025;-64
2022/06/09 06:30:39;;;;;;;8.10;1.92;;;19.00;77.40;;;;;;5056084;28;20457;-64
2022/06/09 06:33:05;;;;;;;7.70;2.53;;;19.20;76.90;;;;;;5055339;28;20114;-64
2022/06/09 06:35:31;;;;;;;7.32;2.00;;;19.30;76.30;;;;;;5056475;28;20495;-64
2022/06/09 06:37:57;;;;;;;7.38;2.17;;;19.40;75.90;;;;;;5040894;28;20032;-64
2022/06/09 06:40:22;;;;;;;5.85;2.00;;;19.50;75.60;;;;;;5054142;28;20074;-64
2022/06/09 06:42:48;;;;;;;7.70;2.35;;;19.70;75.20;;;;;;5055640;28;20474;-64
2022/06/09 06:45:14;;;;;;;5.60;2.03;;;19.80;75.00;;;;;;5036351;28;20378;-63
2022/06/09 06:47:41;;;;;;;6.35;1.90;;;19.80;74.70;;;;;;5056731;28;20041;-64
2022/06/09 06:50:09;;;;;;;5.93;1.92;;;20.00;74.30;;;;;;5056840;28;20117;-64
2022/06/09 06:52:35;;;;;;;5.75;1.98;;;20.10;73.90;;;;;;5050363;28;20119;-64
2022/06/09 06:55:01;;;;;;;5.05;2.03;;;20.20;73.50;;;;;;5043771;28;20100;-64
2022/06/09 06:57:26;;;;;;;6.93;1.90;;;20.40;73.40;;;;;;5053423;28;20091;-64
2022/06/09 06:59:52;;;;;;;6.10;1.75;;;20.50;73.00;;;;;;5056762;28;20397;-64
2022/06/09 07:02:21;;;;;;;6.35;1.98;;;20.60;72.60;;;;;;5048651;28;20026;-63
2022/06/09 07:04:46;;;;;;;4.88;1.80;;;20.50;72.50;;;;;;5046839;28;20025;-63
2022/06/09 07:07:12;;;;;;;4.25;1.55;;;20.50;72.30;;;;;;5047458;28;20382;-64
2022/06/09 07:09:40;;;;;;;5.63;1.90;;;20.50;72.00;;;;;;5043931;28;20025;-64
2022/06/09 07:12:06;;;;;;;5.53;1.80;;;20.60;71.50;;;;;;5042411;28;20061;-64
2022/06/09 07:14:34;;;;;;;5.03;1.65;;;20.70;71.00;;;;;;5048177;28;20063;-64
2022/06/09 07:17:00;;;;;;;7.72;2.00;;;20.80;70.70;;;;;;5053165;28;20029;-65
2022/06/09 07:19:29;;;;;;;5.78;1.75;;;20.90;70.30;;;;;;5030165;28;20038;-64
2022/06/09 07:21:55;;;;;;;5.78;1.73;;;21.10;70.00;;;;;;5037099;28;20411;-64
2022/06/09 07:24:20;;;;;;;5.25;1.60;;;21.30;69.70;;;;;;5042125;28;20029;-64
2022/06/09 07:26:46;;;;;;;6.07;2.03;;;21.50;69.30;;;;;;5043230;28;20434;-64
2022/06/09 07:29:12;;;;;;;6.13;1.90;;;21.60;68.60;;;;;;5047414;28;20025;-64
2022/06/09 07:31:38;;;;;;;5.35;1.65;;;21.80;68.30;;;;;;5051080;28;20517;-64
2022/06/09 07:34:04;;;;;;;6.40;1.95;;;21.80;67.70;;;;;;5039988;28;20393;-64
2022/06/09 07:36:30;;;;;;;7.90;2.25;;;21.90;67.50;;;;;;5036509;28;20033;-63
2022/06/09 07:38:56;;;;;;;4.63;2.00;;;22.00;66.70;;;;;;5038171;28;20095;-64
2022/06/09 07:41:21;;;;;;;7.07;1.95;;;22.10;66.20;;;;;;5034959;28;20037;-64
2022/06/09 07:43:48;;;;;;;3.92;1.90;;;22.10;66.20;;;;;;5033425;28;20021;-63
2022/06/09 07:46:15;;;;;;;6.32;2.15;;;22.10;66.10;;;;;;5041532;28;20084;-64
2022/06/09 07:48:42;;;;;;;6.25;2.20;;;22.00;66.10;;;;;;5031797;28;20120;-64
2022/06/09 07:51:07;;;;;;;5.60;2.00;;;21.90;66.10;;;;;;5038251;28;20148;-64
2022/06/09 07:53:34;;;;;;;7.13;2.40;;;22.00;66.10;;;;;;5033606;28;20401;-64
2022/06/09 07:55:59;;;;;;;6.00;1.95;;;22.00;66.00;;;;;;5034451;28;21012;-64
2022/06/09 07:58:26;;;;;;;5.25;1.95;;;22.10;66.00;;;;;;5037739;28;20048;-64
2022/06/09 08:00:51;;;;;;;6.90;2.45;;;22.00;65.80;;;;;;5046436;28;20028;-64
2022/06/09 08:03:20;;;;;;;8.48;2.20;;;21.90;65.90;;;;;;5028806;28;20518;-64
2022/06/09 08:05:46;;;;;;;7.28;2.30;;;21.80;65.70;;;;;;5034590;28;20033;-64
2022/06/09 08:08:12;;;;;;;6.63;2.25;;;21.90;65.20;;;;;;5034988;28;20028;-63
2022/06/09 08:10:39;;;;;;;7.82;2.22;;;22.10;64.80;;;;;;5046448;28;20045;-64
2022/06/09 08:13:05;;;;;;;7.53;2.13;;;22.30;64.30;;;;;;5055242;28;20395;-64
2022/06/09 08:15:31;;;;;;;5.78;2.30;;;22.40;63.90;;;;;;5055243;28;20067;-63
2022/06/09 08:17:59;;;;;;;4.05;2.10;;;22.50;63.50;;;;;;5041191;28;20044;-63
2022/06/09 08:20:28;;;;;;;5.13;1.90;;;22.70;63.00;;;;;;5054830;28;20025;-63
2022/06/09 08:23:00;;;;;;;4.30;1.80;;;22.90;62.70;;;;;;5054568;28;20095;-63
2022/06/09 08:25:26;;;;;;;5.55;1.88;;;23.10;62.10;;;;;;5045929;28;20477;-64
2022/06/09 08:27:52;;;;;;;4.60;1.92;;;23.20;61.80;;;;;;5049224;28;20056;-64
2022/06/09 08:30:17;;;;;;;5.10;1.85;;;23.30;61.60;;;;;;5053802;28;20052;-64
2022/06/09 08:32:43;;;;;;;6.57;1.77;;;23.20;61.60;;;;;;5054815;28;20036;-63
2022/06/09 08:35:13;;;;;;;5.68;2.30;;;22.90;61.90;;;;;;5042997;28;20021;-64
2022/06/09 08:37:39;;;;;;;6.13;2.28;;;22.80;61.60;;;;;;5054394;28;20458;-64
2022/06/09 08:40:06;;;;;;;5.15;2.05;;;22.60;62.20;;;;;;5054776;28;20040;-64
2022/06/09 08:42:41;;;;;;;4.72;2.00;;;22.40;62.50;;;;;;5054027;28;20032;-64
2022/06/09 08:45:17;;;;;;;5.68;2.20;;;22.40;62.50;;;;;;5054419;28;20094;-64
2022/06/09 08:47:48;;;;;;;4.07;2.00;;;22.20;62.30;;;;;;5054240;28;20040;-63
2022/06/09 08:50:22;;;;;;;7.65;2.25;;;22.00;62.90;;;;;;5053640;28;20120;-64
2022/06/09 08:52:53;;;;;;;6.40;2.13;;;21.90;63.30;;;;;;5048861;28;20091;-64
2022/06/09 08:55:27;;;;;;;6.82;1.73;;;21.70;63.50;;;;;;5033318;28;20025;-63
2022/06/09 08:58:01;;;;;;;4.50;1.77;;;21.60;63.80;;;;;;5054674;28;20037;-64
2022/06/09 09:00:33;;;;;;;4.93;1.73;;;21.70;63.80;;;;;;5035798;28;20057;-64
2022/06/09 09:03:07;;;;;;;2.28;1.10;;;21.90;63.00;;;;;;5053654;28;20412;-64
2022/06/09 09:05:40;;;;;;;2.92;1.10;;;22.40;62.10;;;;;;5049635;28;20370;-63
2022/06/09 09:08:08;;;;;;;5.07;1.30;;;22.70;60.70;;;;;;5035533;28;20025;-64
2022/06/09 09:10:49;;;;;;;4.90;1.67;;;22.70;60.20;;;;;;5054058;28;20103;-64
2022/06/09 09:13:21;;;;;;;4.38;1.30;;;22.60;60.00;;;;;;5054547;28;20036;-64
2022/06/09 09:16:01;;;;;;;7.43;1.90;;;22.40;60.30;;;;;;5054038;28;20029;-64
2022/06/09 09:18:48;;;;;;;3.72;1.30;;;22.20;60.70;;;;;;5053203;28;20120;-64
2022/06/09 09:21:22;;;;;;;5.45;1.75;;;21.90;61.30;;;;;;5045381;28;20029;-64
2022/06/09 09:23:56;;;;;;;4.18;1.83;;;21.70;61.70;;;;;;5054547;28;20296;-64
2022/06/09 09:26:28;;;;;;;5.25;1.58;;;21.50;62.00;;;;;;5053525;28;20025;-64
2022/06/09 09:29:02;;;;;;;4.70;1.67;;;21.40;62.30;;;;;;5053151;28;20032;-64
2022/06/09 09:31:40;;;;;;;5.85;1.67;;;21.30;62.70;;;;;;5053353;28;20029;-63
2022/06/09 09:34:12;;;;;;;3.40;1.23;;;21.20;63.00;;;;;;5053125;28;20449;-63
2022/06/09 09:36:39;;;;;;;3.88;1.60;;;21.20;63.30;;;;;;5052627;28;20023;-64
2022/06/09 09:39:19;;;;;;;5.88;2.20;;;21.30;63.50;;;;;;5053766;28;20029;-64
2022/06/09 09:41:45;;;;;;;5.45;1.70;;;21.40;63.60;;;;;;5048350;28;20041;-63
2022/06/09 09:44:20;;;;;;;5.88;1.70;;;21.50;63.30;;;;;;5054133;28;20088;-63
2022/06/09 09:46:55;;;;;;;5.18;1.98;;;21.90;62.90;;;;;;5054091;28;20087;-63
2022/06/09 09:49:26;;;;;;;5.45;1.98;;;22.30;62.20;;;;;;5053956;28;20041;-64
2022/06/09 09:51:53;;;;;;;6.80;1.85;;;22.70;61.40;;;;;;5054280;28;20029;-64
2022/06/09 09:54:31;;;;;;;5.45;2.10;;;23.00;60.80;;;;;;5057284;28;20063;-64
2022/06/09 09:57:06;;;;;;;7.28;2.28;;;23.10;60.60;;;;;;5057181;28;20063;-64
2022/06/09 09:59:46;;;;;;;5.65;1.90;;;23.20;60.50;;;;;;5057549;28;20052;-64
2022/06/09 10:08:41;;;;;;;3.58;1.33;;;23.10;60.10;;;;;;5045321;28;20045;-64
2022/06/09 10:14:36;;;;;;;7.43;2.42;;;22.40;62.40;;;;;;5057085;28;20025;-64
2022/06/09 10:17:05;;;;;;;8.30;2.50;;;22.00;64.60;;;;;;5051918;28;20040;-63
2022/06/09 10:19:33;;;;;;;7.03;2.42;;;21.60;65.90;;;;;;5036299;28;20029;-64
2022/06/09 10:22:03;;;;;;;7.78;2.35;;;21.40;67.00;;;;;;5039078;28;20021;-64
2022/06/09 10:24:34;;;;;;;5.13;2.10;;;21.10;68.60;;;;;;5045121;28;20036;-64
2022/06/09 10:27:01;;;;;;;6.68;2.28;;;20.80;68.70;;;;;;5042516;28;20121;-64
2022/06/09 10:29:36;;;;;;;6.30;2.55;;;20.70;69.30;;;;;;5037513;28;20065;-64
2022/06/09 10:32:16;;;;;;;6.28;2.28;;;20.50;70.10;;;;;;5047735;28;20037;-64
2022/06/09 10:35:06;;;;;;;6.55;2.50;;;20.40;70.70;;;;;;5053135;28;20416;-64
2022/06/09 10:37:43;;;;;;;7.18;2.55;;;20.30;71.30;;;;;;5040436;28;20033;-63
2022/06/09 10:40:18;;;;;;;7.03;2.55;;;20.20;71.70;;;;;;5038833;28;20439;-64
2022/06/09 10:42:59;;;;;;;6.25;2.33;;;20.20;72.20;;;;;;5039543;28;20025;-64
2022/06/09 10:45:35;;;;;;;;;;;20.10;72.30;;;;;;5039726;28;20053;-64
2022/06/09 10:57:45;;;;;;;6.63;2.03;;;20.20;71.40;;;;;;5038344;28;20363;-64
2022/06/09 11:00:17;;;;;;;5.13;1.90;;;20.30;71.20;;;;;;5040764;28;20041;-63
2022/06/09 11:02:53;;;;;;;8.02;2.17;;;20.50;71.00;;;;;;5038995;28;20032;-63
2022/06/09 11:05:28;;;;;;;7.05;2.08;;;20.70;70.60;;;;;;5040418;28;20101;-64
2022/06/09 11:08:30;;;;;;;6.05;1.80;;;20.90;69.80;;;;;;5043010;28;20030;-65
2022/06/09 11:11:19;;;;;;;4.80;2.05;;;21.20;69.20;;;;;;5035372;28;20378;-63
2022/06/09 11:14:17;;;;;;;5.65;1.98;;;21.50;68.50;;;;;;5038405;28;20052;-63
2022/06/09 11:16:58;;;;;;;4.18;1.73;;;21.90;66.50;;;;;;5042214;28;20478;-63
2022/06/09 11:19:52;;;;;;;6.05;1.52;;;22.00;65.90;;;;;;5041936;28;20056;-64
2022/06/09 11:22:46;;;;;;;4.65;1.67;;;22.00;64.90;;;;;;5043703;28;20028;-63
2022/06/09 11:25:25;;;;;;;8.07;2.22;;;21.80;65.10;;;;;;5039649;28;20128;-63
2022/06/09 11:28:03;;;;;;;4.57;1.55;;;21.60;65.30;;;;;;5038247;28;20033;-63
2022/06/09 11:30:36;;;;;;;4.72;2.00;;;21.50;65.40;;;;;;5043133;28;20458;-63
2022/06/09 11:33:20;;;;;;;3.50;1.58;;;21.40;65.20;;;;;;5048167;28;20033;-63
2022/06/09 11:35:58;;;;;;;3.97;1.67;;;21.30;65.50;;;;;;5035427;28;21068;-63
2022/06/09 11:38:47;;;;;;;5.65;1.50;;;21.10;65.50;;;;;;5025884;28;20103;-67
2022/06/09 11:41:29;;;;;;;4.78;1.45;;;21.00;65.10;;;;;;5051053;28;20029;-65
2022/06/09 11:44:29;;;;;;;5.32;1.42;;;20.90;64.70;;;;;;5040969;28;20100;-64
2022/06/09 11:46:59;;;;;;;5.00;1.30;;;20.90;64.10;;;;;;5053061;28;20029;-65
2022/06/09 11:49:39;;;;;;;3.47;1.40;;;21.30;63.30;;;;;;5040855;28;20378;-66
2022/06/09 11:52:12;;;;;;;4.45;1.35;;;21.50;62.00;;;;;;5053381;28;20056;-67
2022/06/09 11:54:54;;;;;;;5.25;1.40;;;21.80;60.90;;;;;;5039704;28;20033;-67
2022/06/09 11:57:22;;;;;;;5.18;1.30;;;21.90;59.90;;;;;;5054748;28;20068;-67
2022/06/09 11:59:52;;;;;;;4.72;1.42;;;21.90;60.00;;;;;;5054791;28;20028;-67
2022/06/09 12:02:36;;;;;;;5.85;1.50;;;21.90;59.70;;;;;;5054417;28;20111;-67
2022/06/09 12:05:23;;;;;;;5.97;1.80;;;22.10;59.20;;;;;;5053666;28;20120;-67
2022/06/09 12:08:32;;;;;;;3.22;1.17;;;22.30;58.70;;;;;;5052027;28;20029;-67
2022/06/09 12:11:06;;;;;;;6.22;1.52;;;22.50;58.20;;;;;;5048451;28;20138;-67
2022/06/09 12:13:53;;;;;;;3.40;1.00;;;22.50;57.80;;;;;;5054854;28;20107;-67
2022/06/09 12:16:26;;;;;;;5.35;1.30;;;22.50;57.70;;;;;;5053814;28;20025;-67
2022/06/09 12:19:13;;;;;;;4.70;1.25;;;22.60;57.70;;;;;;5050343;28;20025;-67
2022/06/09 12:21:42;;;;;;;4.63;1.27;;;22.70;57.20;;;;;;5053681;28;20032;-67
2022/06/09 12:24:14;;;;;;;5.72;1.40;;;22.80;56.70;;;;;;5054654;28;20025;-67
2022/06/09 12:26:39;;;;;;;6.95;1.52;;;22.90;56.20;;;;;;5054854;28;20025;-67
2022/06/09 12:29:40;;;;;;;4.18;1.10;;;22.90;56.00;;;;;;5054787;28;20033;-67
2022/06/09 12:32:08;;;;;;;5.18;1.48;;;22.90;55.50;;;;;;5054634;28;20040;-67
2022/06/09 12:34:46;;;;;;;6.07;1.13;;;22.90;55.20;;;;;;5045406;28;20033;-67
2022/06/09 12:37:34;;;;;;;6.40;1.20;;;23.00;55.10;;;;;;5053458;28;20081;-67
2022/06/09 12:40:05;;;;;;;8.15;1.52;;;23.10;54.80;;;;;;5018723;28;20124;-65
2022/06/09 12:42:46;;;;;;;;;;;23.20;54.20;;;;;;5041032;28;20029;-67
2022/06/09 12:45:18;;;;;;;5.82;1.23;;;23.20;54.40;;;;;;5045522;28;19943;-69
2022/06/09 12:48:02;;;;;;;3.17;1.30;;;23.20;54.30;;;;;;5047147;28;20419;-65
2022/06/09 12:50:50;;;;;;;3.83;1.15;;;23.20;53.80;;;;;;5030495;28;20436;-65
2022/06/09 12:53:27;;;;;;;5.25;1.20;;;23.20;53.60;;;;;;5039359;28;20087;-65
2022/06/09 12:55:56;;;;;;;4.95;1.45;;;23.30;53.40;;;;;;5045464;28;20030;-65
2022/06/09 12:58:31;;;;;;;2.88;1.00;;;23.20;53.20;;;;;;5036717;28;20026;-65
2022/06/09 13:01:03;;;;;;;3.05;1.58;;;23.00;53.10;;;;;;5035544;28;20028;-65
2022/06/09 13:03:35;;;;;;;4.60;1.45;;;22.90;53.20;;;;;;5033268;28;20021;-65
2022/06/09 13:06:20;;;;;;;3.67;1.35;;;22.70;53.30;;;;;;5035655;28;20022;-64
2022/06/09 13:08:48;;;;;;;4.38;1.50;;;22.60;54.00;;;;;;5032961;28;20033;-65
2022/06/09 13:14:24;;;;;;;3.80;1.33;;;22.50;53.60;;;;;;5045817;28;20111;-65
2022/06/09 13:16:54;;;;;;;4.22;1.27;;;22.40;53.90;;;;;;5053839;28;20167;-65
2022/06/09 13:19:23;;;;;;;5.88;1.63;;;22.50;53.60;;;;;;5039367;28;20029;-65
2022/06/09 13:21:50;;;;;;;6.13;1.42;;;22.50;53.40;;;;;;5040307;28;20025;-65
2022/06/09 13:24:25;;;;;;;4.00;1.30;;;22.50;53.20;;;;;;5049216;28;20018;-65
2022/06/09 13:26:52;;;;;;;5.20;1.35;;;22.50;53.10;;;;;;5050905;28;20025;-65
2022/06/09 13:29:29;;;;;;;5.13;1.40;;;22.50;53.20;;;;;;5047285;28;20119;-65
2022/06/09 13:32:17;;;;;;;4.40;1.55;;;22.40;53.20;;;;;;5052117;28;20037;-65
2022/06/09 13:34:45;;;;;;;4.80;1.55;;;22.30;53.40;;;;;;5031909;28;20025;-64
2022/06/09 13:37:21;;;;;;;3.45;1.35;;;22.20;53.60;;;;;;5021601;28;20033;-64